createdAt,value
2023-05-11T00:04:00.022Z,72.87
2023-05-11T00:09:33.140Z,72.60
2023-05-11T00:15:58.889Z,67.55
2023-05-11T00:21:46.969Z,63.22
2023-05-11T00:28:14.684Z,55.58
2023-05-11T00:58:05.915Z,58.22
2023-05-11T01:04:25.901Z,58.68
2023-05-11T01:11:02.964Z,59.15
2023-05-11T01:17:49.309Z,59.88
2023-05-11T01:32:00.388Z,69.04
2023-05-11T01:38:46.034Z,66.00
2023-05-11T02:03:38.912Z,54.45
2023-05-11T02:10:25.880Z,55.12
2023-05-11T02:30:13.241Z,60.66
2023-05-11T02:37:01.673Z,70.62
2023-05-11T02:57:07.632Z,56.56
2023-05-11T03:03:46.302Z,51.96
2023-05-11T03:24:21.176Z,58.30
2023-05-11T03:30:47.860Z,58.56
2023-05-11T03:55:14.853Z,70.38
2023-05-11T04:01:47.845Z,67.81
2023-05-11T04:07:51.350Z,64.50
2023-05-11T04:14:17.798Z,59.77
2023-05-11T04:19:59.566Z,52.25
2023-05-11T04:32:01.803Z,55.08
2023-05-11T04:37:40.162Z,56.25
2023-05-11T04:44:05.684Z,57.93
2023-05-11T05:28:43.210Z,52.06
2023-05-11T05:35:14.318Z,53.50
2023-05-11T05:41:03.151Z,56.36
2023-05-11T06:06:20.527Z,65.74
2023-05-11T06:26:04.202Z,52.93
2023-05-11T06:44:52.867Z,56.09
2023-05-11T06:51:30.190Z,56.65
2023-05-11T07:02:47.977Z,58.40
2023-05-11T07:08:19.185Z,57.81
2023-05-11T07:14:17.471Z,57.01
2023-05-11T07:20:19.945Z,57.20
2023-05-11T07:26:16.149Z,56.76
2023-05-11T07:32:07.013Z,56.92
2023-05-11T07:37:38.683Z,56.61
2023-05-11T07:43:29.230Z,56.33
2023-05-11T07:49:03.351Z,56.20
2023-05-11T07:55:09.687Z,55.90
2023-05-11T08:01:10.111Z,54.85
2023-05-11T08:07:32.805Z,54.02
2023-05-11T08:13:07.246Z,53.47
2023-05-11T08:18:43.513Z,53.08
2023-05-11T08:24:56.887Z,52.81
2023-05-11T08:30:55.462Z,52.52
2023-05-11T08:36:34.101Z,51.86
2023-05-11T08:42:26.884Z,51.33
2023-05-11T08:48:04.443Z,51.37
2023-05-11T08:54:31.932Z,50.77
2023-05-11T08:59:57.166Z,49.53
2023-05-11T09:06:14.007Z,47.92
2023-05-11T09:11:59.547Z,47.97
2023-05-11T09:17:48.426Z,46.71
2023-05-11T09:24:04.638Z,46.35
2023-05-11T09:29:40.100Z,43.54
2023-05-11T09:35:29.119Z,42.74
2023-05-11T09:41:23.973Z,42.95
2023-05-11T09:48:13.384Z,43.36
2023-05-11T09:54:29.061Z,43.70
2023-05-11T10:32:13.383Z,39.44
2023-05-11T10:44:54.589Z,40.05
2023-05-11T10:51:49.693Z,40.75
2023-05-11T10:57:23.789Z,42.49
2023-05-11T11:03:20.421Z,43.53
2023-05-11T11:27:13.197Z,42.77
2023-05-11T11:33:40.836Z,41.63
2023-05-11T11:39:27.185Z,42.01
2023-05-11T11:46:04.713Z,41.34
2023-05-11T11:51:44.957Z,40.20
2023-05-11T11:58:11.734Z,39.72
2023-05-11T12:04:33.793Z,39.10
2023-05-11T12:10:11.637Z,39.28
2023-05-11T12:16:34.354Z,39.63
2023-05-11T12:22:09.275Z,40.04
2023-05-11T12:28:13.387Z,39.74
2023-05-11T12:34:31.374Z,39.87
2023-05-11T12:40:49.470Z,39.67
2023-05-11T12:46:50.448Z,39.39
2023-05-11T12:52:28.933Z,38.55
2023-05-11T12:58:52.294Z,38.79
2023-05-11T13:05:23.344Z,39.22
2023-05-11T13:10:51.388Z,39.56
2023-05-11T13:17:17.787Z,39.30
2023-05-11T13:23:32.695Z,38.86
2023-05-11T13:29:49.964Z,39.41
2023-05-11T13:50:04.393Z,39.04
2023-05-11T14:03:02.418Z,39.41
2023-05-11T14:28:37.737Z,40.82
2023-05-11T14:41:41.999Z,40.51
2023-05-11T15:00:59.440Z,41.13
2023-05-11T15:07:45.889Z,41.27
2023-05-11T15:27:17.682Z,42.02
2023-05-11T15:40:19.291Z,42.49
2023-05-11T15:46:22.869Z,42.55
2023-05-11T15:53:09.050Z,42.51
2023-05-11T16:24:41.313Z,42.72
2023-05-11T16:30:22.299Z,43.10
2023-05-11T16:36:09.502Z,42.76
2023-05-11T16:42:14.191Z,43.06
2023-05-11T16:47:38.989Z,43.39
2023-05-11T16:53:07.426Z,43.80
2023-05-11T16:58:54.054Z,44.01
2023-05-11T17:04:39.817Z,44.21
2023-05-11T17:10:13.444Z,44.47
2023-05-11T17:15:42.426Z,44.47
2023-05-11T17:21:12.737Z,44.68
2023-05-11T17:26:46.961Z,44.59
2023-05-11T17:32:23.546Z,44.41
2023-05-11T17:38:21.461Z,44.50
2023-05-11T17:43:54.894Z,44.54
2023-05-11T17:49:40.122Z,44.77
2023-05-11T17:55:08.977Z,45.07
2023-05-11T18:00:42.399Z,45.35
2023-05-11T18:06:20.018Z,45.74
2023-05-11T18:11:45.654Z,46.29
2023-05-11T18:17:20.743Z,47.05
2023-05-11T18:23:09.472Z,47.61
2023-05-11T18:28:37.847Z,48.16
2023-05-11T18:34:04.277Z,48.81
2023-05-11T18:40:42.386Z,49.33
2023-05-11T19:00:26.607Z,51.26
2023-05-11T19:06:36.306Z,51.50
2023-05-11T19:12:05.033Z,51.90
2023-05-11T19:18:02.707Z,52.32
2023-05-11T19:23:48.908Z,52.58
2023-05-11T19:46:15.099Z,53.96
2023-05-11T19:51:40.523Z,54.23
2023-05-11T19:57:05.812Z,54.63
2023-05-11T20:02:43.658Z,54.96
2023-05-11T20:08:31.381Z,55.28
2023-05-11T20:14:18.535Z,55.63
2023-05-11T20:20:36.263Z,56.29
2023-05-11T20:26:12.920Z,56.80
2023-05-11T20:31:40.501Z,57.29
2023-05-11T20:37:22.493Z,57.51
2023-05-11T20:42:56.989Z,57.69
2023-05-11T20:48:40.382Z,57.97
2023-05-11T20:54:07.846Z,58.40
2023-05-11T21:05:04.360Z,59.08
2023-05-11T21:10:29.281Z,59.34
2023-05-11T21:15:57.200Z,59.55
2023-05-11T21:21:22.448Z,59.70
2023-05-11T21:26:49.893Z,59.88
2023-05-11T21:32:41.117Z,59.99
2023-05-11T21:38:26.131Z,59.95
2023-05-11T21:43:53.362Z,59.90
2023-05-11T21:49:23.758Z,60.23
2023-05-11T21:54:48.832Z,60.38
2023-05-11T22:00:18.929Z,60.49
2023-05-11T22:05:43.757Z,60.63
2023-05-11T22:11:08.413Z,60.61
2023-05-11T22:16:36.303Z,60.61
2023-05-11T22:22:04.839Z,60.62
2023-05-11T22:27:30.402Z,60.64
2023-05-11T22:32:55.842Z,60.76
2023-05-11T22:38:20.637Z,60.79
2023-05-11T22:43:45.257Z,60.82
2023-05-11T22:49:10.028Z,60.97
2023-05-11T22:54:44.015Z,61.14
2023-05-11T23:00:13.002Z,61.25
2023-05-11T23:05:38.611Z,61.37
2023-05-11T23:11:03.625Z,61.42
2023-05-11T23:16:33.996Z,61.47
2023-05-11T23:21:58.696Z,61.56
2023-05-11T23:27:23.887Z,61.63
2023-05-11T23:32:52.153Z,61.81
2023-05-11T23:38:21.277Z,61.94
2023-05-11T23:43:46.380Z,62.03
2023-05-11T23:49:11.150Z,62.03
2023-05-11T23:54:35.838Z,62.04
